Miguel Oliver — ECLX — position and weather

sailwx.info

Track history (hours):
 
Tides and Currents Weather Stations Pressure Air Temp Water Temp Dewpoint Dewpoint Depression Visibility Wind Speed Wind Dir Waves Ship Positions

Oceanographic research ship Miguel Oliver (Spain)

Ship's website: http://www.mapa.es/es/pesca/pags/miguel_web/index.htm

Last reported at 2014-Jul-13 18:19 UTC. Time now 2014-Jul-22 15:28 UTC.
Position N 36°40' W 002°08'.
Warning: this ship's position is 8 days out of date.

Length 70 m; draft 4.8 m.

Type: Other ship. MMSI: 225322000.

Date/timePositionNaut miles runAvg speedWind from/ knotsBaromVisibWave heightAir tempDewpointWater temp
2014-Jul-13 18:19N 36°40' W 002°08'14 0.7
2014-Jul-12 20:30N 36°52' W 001°58'61 1.5
2014-Jul-11 03:08N 37°30' W 000°58'0 0.9
2014-Jul-11 02:33N 37°30' W 000°58'0 0.1
2014-Jul-11 01:26N 37°30' W 000°57'0 0.2
2014-Jul-11 00:33N 37°30' W 000°57'2 0.3
2014-Jul-10 17:25N 37°30' W 000°55'2 0.8
2014-Jul-10 14:33N 37°32' W 000°55'7 6.9
2014-Jul-10 13:33N 37°31' W 000°47'4 4.0
2014-Jul-10 12:33N 37°32' W 000°42'2 2.1
2014-Jul-10 11:33N 37°32' W 000°44'3 3.0
2014-Jul-10 10:34N 37°35' W 000°44'8 8.0
2014-Jul-10 09:33N 37°34' W 000°34'8 8.2
2014-Jul-10 08:33N 37°39' W 000°27'10 9.7
2014-Jul-10 07:33N 37°44' W 000°37'1 1.1
2014-Jul-10 06:33N 37°45' W 000°38'4 3.9
2014-Jul-10 05:33N 37°47' W 000°42'4 3.7
2014-Jul-10 04:33N 37°46' W 000°38'2 1.7
2014-Jul-10 03:33N 37°45' W 000°36'1 0.6
2014-Jul-10 02:33N 37°46' W 000°35'1 0.6
2014-Jul-10 01:33N 37°46' W 000°35'1 0.6
2014-Jul-10 00:33N 37°47' W 000°34'1 0.6
2014-Jul-09 23:33N 37°47' W 000°34'1 0.6
2014-Jul-09 22:33N 37°47' W 000°33'1 0.5
2014-Jul-09 21:32N 37°47' W 000°32'4 3.6
2014-Jul-09 20:33N 37°47' W 000°28'4 4.3
2014-Jul-09 19:33N 37°47' W 000°23'7 7.1
2014-Jul-09 18:33N 37°51' W 000°30'4 4.3
2014-Jul-09 17:33N 37°53' W 000°35'5 4.2
2014-Jul-09 16:25N 37°50' W 000°30'10 7.9
2014-Jul-09 15:06N 37°57' W 000°39'5 8.6
2014-Jul-09 14:32N 38°02' W 000°37'3 3.1
2014-Jul-09 13:33N 37°59' W 000°38'4 4.3
2014-Jul-09 12:34N 38°03' W 000°36'9 9.2
2014-Jul-09 11:33N 37°58' W 000°26'7 6.5
2014-Jul-09 10:33N 37°59' W 000°18'8 7.5
2014-Jul-09 09:32N 38°06' W 000°22'7 6.8
2014-Jul-09 08:31N 38°09' W 000°30'18 0.5
2014-Jul-07 17:04N 38°07' W 000°07'1 2.5
2014-Jul-07 16:32N 38°08' W 000°08'7 7.1
2014-Jul-07 15:32N 38°12' W 000°16'10 9.7
2014-Jul-07 14:31N 38°17' W 000°26'8 7.3
2014-Jul-07 13:27N 38°23' W 000°20'9 9.5
2014-Jul-07 12:30N 38°19' W 000°11'11 0.9
2014-Jul-07 00:33N 38°27' W 000°02'14 1.8
2014-Jul-06 17:05N 38°24' E 000°15'5 9.5
2014-Jul-06 16:33N 38°27' E 000°10'19 1.8
2014-Jul-06 06:13N 38°45' E 000°19'13 3.4
2014-Jul-06 02:29N 38°57' E 000°15'0 0.4
2014-Jul-06 01:27N 38°57' E 000°16'0 0.3
2014-Jul-06 00:33N 38°56' E 000°16'1 0.5
2014-Jul-05 23:10N 38°56' E 000°16'0 0.5
2014-Jul-05 22:33N 38°56' E 000°16'1 0.5
2014-Jul-05 21:16N 38°55' E 000°16'1 1.8
2014-Jul-05 20:33N 38°56' E 000°14'7 6.8
2014-Jul-05 19:30N 39°02' E 000°09'10 2.4
2014-Jul-05 15:09N 38°58' E 000°21'5 8.6
2014-Jul-05 14:33N 38°57' E 000°15'11 3.3
2014-Jul-05 11:14N 39°07' E 000°12'25 1.6
2014-Jul-04 19:30N 39°21' W 000°16'9 9.9
2014-Jul-04 18:33N 39°20' W 000°03'4 4.0
2014-Jul-04 17:33N 39°24' W 000°01'5 5.0
2014-Jul-04 16:33N 39°27' W 000°07'5 2.4
2014-Jul-04 14:33N 39°30' W 000°12'17 2.0
2014-Jul-04 06:26N 39°40' E 000°05'  
Track history (hours):
 
Tides and Currents Weather Stations Pressure Air Temp Water Temp Dewpoint Dewpoint Depression Visibility Wind Speed Wind Dir Waves Ship Positions

Oceanographic research ship Miguel Oliver (Spain)

Ship's website: http://www.mapa.es/es/pesca/pags/miguel_web/index.htm

Last reported at 2014-Jul-13 18:19 UTC. Time now 2014-Jul-22 15:28 UTC.
Position N 36°40' W 002°08'.
Warning: this ship's position is 8 days out of date.

Length 70 m; draft 4.8 m.

Type: Other ship. MMSI: 225322000.

Date/timePositionNaut miles runAvg speedWind from/ knotsBaromVisibWave heightAir tempDewpointWater temp
2014-Jul-13 18:19N 36°40' W 002°08'14 0.7
2014-Jul-12 20:30N 36°52' W 001°58'61 1.5
2014-Jul-11 03:08N 37°30' W 000°58'0 0.9
2014-Jul-11 02:33N 37°30' W 000°58'0 0.1
2014-Jul-11 01:26N 37°30' W 000°57'0 0.2
2014-Jul-11 00:33N 37°30' W 000°57'2 0.3
2014-Jul-10 17:25N 37°30' W 000°55'2 0.8
2014-Jul-10 14:33N 37°32' W 000°55'7 6.9
2014-Jul-10 13:33N 37°31' W 000°47'4 4.0
2014-Jul-10 12:33N 37°32' W 000°42'2 2.1
2014-Jul-10 11:33N 37°32' W 000°44'3 3.0
2014-Jul-10 10:34N 37°35' W 000°44'8 8.0
2014-Jul-10 09:33N 37°34' W 000°34'8 8.2
2014-Jul-10 08:33N 37°39' W 000°27'10 9.7
2014-Jul-10 07:33N 37°44' W 000°37'1 1.1
2014-Jul-10 06:33N 37°45' W 000°38'4 3.9
2014-Jul-10 05:33N 37°47' W 000°42'4 3.7
2014-Jul-10 04:33N 37°46' W 000°38'2 1.7
2014-Jul-10 03:33N 37°45' W 000°36'1 0.6
2014-Jul-10 02:33N 37°46' W 000°35'1 0.6
2014-Jul-10 01:33N 37°46' W 000°35'1 0.6
2014-Jul-10 00:33N 37°47' W 000°34'1 0.6
2014-Jul-09 23:33N 37°47' W 000°34'1 0.6
2014-Jul-09 22:33N 37°47' W 000°33'1 0.5
2014-Jul-09 21:32N 37°47' W 000°32'4 3.6
2014-Jul-09 20:33N 37°47' W 000°28'4 4.3
2014-Jul-09 19:33N 37°47' W 000°23'7 7.1
2014-Jul-09 18:33N 37°51' W 000°30'4 4.3
2014-Jul-09 17:33N 37°53' W 000°35'5 4.2
2014-Jul-09 16:25N 37°50' W 000°30'10 7.9
2014-Jul-09 15:06N 37°57' W 000°39'5 8.6
2014-Jul-09 14:32N 38°02' W 000°37'3 3.1
2014-Jul-09 13:33N 37°59' W 000°38'4 4.3
2014-Jul-09 12:34N 38°03' W 000°36'9 9.2
2014-Jul-09 11:33N 37°58' W 000°26'7 6.5
2014-Jul-09 10:33N 37°59' W 000°18'8 7.5
2014-Jul-09 09:32N 38°06' W 000°22'7 6.8
2014-Jul-09 08:31N 38°09' W 000°30'18 0.5
2014-Jul-07 17:04N 38°07' W 000°07'1 2.5
2014-Jul-07 16:32N 38°08' W 000°08'7 7.1
2014-Jul-07 15:32N 38°12' W 000°16'10 9.7
2014-Jul-07 14:31N 38°17' W 000°26'8 7.3
2014-Jul-07 13:27N 38°23' W 000°20'9 9.5
2014-Jul-07 12:30N 38°19' W 000°11'11 0.9
2014-Jul-07 00:33N 38°27' W 000°02'14 1.8
2014-Jul-06 17:05N 38°24' E 000°15'5 9.5
2014-Jul-06 16:33N 38°27' E 000°10'19 1.8
2014-Jul-06 06:13N 38°45' E 000°19'13 3.4
2014-Jul-06 02:29N 38°57' E 000°15'0 0.4
2014-Jul-06 01:27N 38°57' E 000°16'0 0.3
2014-Jul-06 00:33N 38°56' E 000°16'1 0.5
2014-Jul-05 23:10N 38°56' E 000°16'0 0.5
2014-Jul-05 22:33N 38°56' E 000°16'1 0.5
2014-Jul-05 21:16N 38°55' E 000°16'1 1.8
2014-Jul-05 20:33N 38°56' E 000°14'7 6.8
2014-Jul-05 19:30N 39°02' E 000°09'10 2.4
2014-Jul-05 15:09N 38°58' E 000°21'5 8.6
2014-Jul-05 14:33N 38°57' E 000°15'11 3.3
2014-Jul-05 11:14N 39°07' E 000°12'25 1.6
2014-Jul-04 19:30N 39°21' W 000°16'9 9.9
2014-Jul-04 18:33N 39°20' W 000°03'4 4.0
2014-Jul-04 17:33N 39°24' W 000°01'5 5.0
2014-Jul-04 16:33N 39°27' W 000°07'5 2.4
2014-Jul-04 14:33N 39°30' W 000°12'17 2.0
2014-Jul-04 06:26N 39°40' E 000°05'  

Dump ship's entire track history